createdAt,value
2018-07-04T00:01:12.203Z,8.90
2018-07-04T00:03:53.938Z,7.23
2018-07-04T00:06:33.877Z,8.80
2018-07-04T00:09:13.849Z,8.30
2018-07-04T00:11:53.562Z,8.97
2018-07-04T00:14:33.741Z,9.93
2018-07-04T00:17:13.597Z,11.23
2018-07-04T00:19:55.323Z,10.77
2018-07-04T00:22:34.942Z,10.07
2018-07-04T00:25:14.926Z,10.27
2018-07-04T00:27:54.635Z,8.80
2018-07-04T00:30:34.488Z,8.77
2018-07-04T00:33:14.318Z,12.13
2018-07-04T00:35:56.330Z,9.47
2018-07-04T00:38:37.040Z,11.00
2018-07-04T00:41:18.747Z,9.73
2018-07-04T00:43:58.425Z,13.27
2018-07-04T00:46:39.268Z,10.53
2018-07-04T00:49:18.934Z,10.40
2018-07-04T00:51:58.965Z,7.73
2018-07-04T00:54:38.590Z,9.10
2018-07-04T00:57:20.444Z,8.00
2018-07-04T01:00:00.300Z,8.90
2018-07-04T01:02:42.149Z,9.13
2018-07-04T01:05:21.962Z,13.53
2018-07-04T01:08:03.875Z,13.80
2018-07-04T01:10:44.563Z,9.53
2018-07-04T01:13:24.618Z,12.30
2018-07-04T01:16:08.124Z,12.07
2018-07-04T01:18:48.008Z,13.30
2018-07-04T01:21:27.720Z,13.53
2018-07-04T01:24:07.483Z,11.30
2018-07-04T01:26:47.301Z,11.33
2018-07-04T01:29:27.167Z,6.97
2018-07-04T01:32:06.981Z,10.47
2018-07-04T01:34:48.943Z,12.07
2018-07-04T01:37:28.699Z,7.70
2018-07-04T01:40:10.385Z,10.70
2018-07-04T01:42:50.195Z,7.57
2018-07-04T01:45:30.257Z,10.00
2018-07-04T01:48:10.108Z,7.80
2018-07-04T01:50:52.242Z,8.50
2018-07-04T01:53:32.018Z,8.03
2018-07-04T01:56:11.762Z,8.87
2018-07-04T01:58:52.376Z,8.43
2018-07-04T02:01:32.300Z,10.07
2018-07-04T02:04:12.058Z,8.33
2018-07-04T02:06:52.197Z,13.50
2018-07-04T02:09:34.308Z,13.40
2018-07-04T02:12:15.434Z,9.67
2018-07-04T02:14:55.069Z,7.27
2018-07-04T02:17:36.744Z,9.40
2018-07-04T02:20:16.416Z,6.83
2018-07-04T02:22:58.134Z,8.50
2018-07-04T02:25:38.091Z,8.50
2018-07-04T02:28:17.927Z,11.87
2018-07-04T02:30:57.620Z,11.33
2018-07-04T02:33:37.432Z,14.27
2018-07-04T02:36:17.217Z,7.80
2018-07-04T02:38:57.055Z,12.63
2018-07-04T02:41:36.845Z,7.50
2018-07-04T02:44:16.691Z,10.83
2018-07-04T02:46:50.364Z,10.17
2018-07-04T02:49:30.355Z,9.63
2018-07-04T02:52:10.096Z,14.00
2018-07-04T02:54:52.164Z,8.80
2018-07-04T02:57:31.949Z,8.23
2018-07-04T03:00:11.998Z,13.43
2018-07-04T03:02:51.761Z,7.83
2018-07-04T03:05:33.572Z,12.23
2018-07-04T03:08:13.397Z,9.67
2018-07-04T03:10:53.498Z,7.33
2018-07-04T03:13:33.160Z,9.67
2018-07-04T03:16:12.937Z,13.20
2018-07-04T03:18:52.876Z,9.37
2018-07-04T03:21:32.840Z,6.10
2018-07-04T03:24:12.691Z,10.17
2018-07-04T03:26:55.316Z,9.93
2018-07-04T03:29:35.095Z,15.17
2018-07-04T03:32:17.207Z,10.67
2018-07-04T03:34:56.834Z,10.80
2018-07-04T03:37:36.606Z,9.57
2018-07-04T03:40:16.469Z,13.93
2018-07-04T03:42:56.369Z,10.23
2018-07-04T03:45:36.120Z,13.93
2018-07-04T03:48:17.721Z,12.97
2018-07-04T03:50:57.479Z,9.57
2018-07-04T03:53:37.637Z,13.10
2018-07-04T03:56:17.275Z,10.77
2018-07-04T03:58:57.000Z,11.83
2018-07-04T04:01:36.705Z,12.27
2018-07-04T04:04:16.595Z,6.63
2018-07-04T04:06:56.362Z,13.17
2018-07-04T04:09:39.249Z,10.20
2018-07-04T04:12:21.352Z,9.17
2018-07-04T04:14:55.425Z,10.90
2018-07-04T04:17:35.199Z,11.00
2018-07-04T04:20:17.350Z,13.80
2018-07-04T04:22:57.183Z,13.10
2018-07-04T04:25:39.191Z,9.90
2018-07-04T04:28:18.843Z,9.43
2018-07-04T04:31:00.629Z,11.17
2018-07-04T04:33:40.195Z,13.27
2018-07-04T04:36:14.263Z,9.77
2018-07-04T04:38:54.025Z,9.43
2018-07-04T04:41:33.856Z,11.37
2018-07-04T04:44:13.429Z,9.20
2018-07-04T04:46:55.233Z,6.53
2018-07-04T04:49:35.035Z,8.90
2018-07-04T04:52:15.030Z,14.73
2018-07-04T04:54:54.733Z,9.83
2018-07-04T04:57:34.525Z,10.00
2018-07-04T05:00:14.245Z,10.60
2018-07-04T05:02:54.326Z,14.17
2018-07-04T05:05:34.098Z,12.97
2018-07-04T05:08:16.033Z,10.57
2018-07-04T05:10:55.842Z,13.43
2018-07-04T05:13:36.046Z,13.17
2018-07-04T05:16:15.849Z,10.17
2018-07-04T05:18:55.890Z,14.83
2018-07-04T05:21:31.603Z,9.03
2018-07-04T05:24:11.830Z,12.13
2018-07-04T05:26:51.618Z,13.37
2018-07-04T05:29:40.281Z,12.87
2018-07-04T05:32:19.891Z,11.83
2018-07-04T05:35:01.706Z,7.57
2018-07-04T05:37:41.484Z,7.97
2018-07-04T05:40:23.887Z,8.20
2018-07-04T05:43:03.737Z,10.10
2018-07-04T05:45:43.379Z,10.80
2018-07-04T05:48:23.380Z,12.03
2018-07-04T05:51:08.164Z,13.20
2018-07-04T05:53:48.201Z,12.07
2018-07-04T05:56:28.206Z,7.50
2018-07-04T05:59:09.181Z,10.93
2018-07-04T06:01:52.183Z,8.10
2018-07-04T06:04:32.238Z,7.90
2018-07-04T06:07:12.458Z,12.53
2018-07-04T06:09:52.757Z,9.03
2018-07-04T06:12:33.470Z,9.00
2018-07-04T06:15:15.704Z,11.07
2018-07-04T06:17:55.592Z,16.43
2018-07-04T06:20:35.488Z,9.17
2018-07-04T06:23:18.380Z,6.23
2018-07-04T06:26:02.987Z,8.27
2018-07-04T06:28:44.804Z,14.33
2018-07-04T06:31:24.582Z,7.77
2018-07-04T06:34:04.568Z,5.77
2018-07-04T06:36:44.659Z,6.67
2018-07-04T06:39:12.313Z,7.13
2018-07-04T06:41:39.643Z,6.80
2018-07-04T06:44:06.988Z,7.87
2018-07-04T06:46:37.550Z,10.67
2018-07-04T06:49:04.929Z,7.37
2018-07-04T06:51:32.278Z,10.13
2018-07-04T06:53:59.840Z,7.50
2018-07-04T06:56:27.194Z,7.93
2018-07-04T06:58:54.543Z,7.23
2018-07-04T07:01:22.305Z,7.07
2018-07-04T07:04:01.950Z,8.83
2018-07-04T07:06:44.154Z,8.10
2018-07-04T07:09:26.480Z,8.00
2018-07-04T07:12:10.835Z,9.87
2018-07-04T07:14:52.724Z,8.90
2018-07-04T07:17:35.751Z,9.67
2018-07-04T07:20:18.778Z,8.47
2018-07-04T07:23:05.606Z,10.67
2018-07-04T07:25:50.350Z,7.07
2018-07-04T07:28:35.106Z,9.80
2018-07-04T07:31:17.937Z,11.40
2018-07-04T07:34:00.171Z,11.33
2018-07-04T07:36:43.042Z,7.07
2018-07-04T07:39:30.465Z,13.03
2018-07-04T07:42:12.572Z,10.03
2018-07-04T07:44:58.984Z,7.63
2018-07-04T07:47:48.434Z,11.23
2018-07-04T07:50:33.816Z,14.07
2018-07-04T07:53:16.537Z,6.77
2018-07-04T07:56:00.882Z,10.40
2018-07-04T07:59:01.112Z,12.37
2018-07-04T08:01:55.483Z,7.13
2018-07-04T08:04:41.386Z,13.53
2018-07-04T08:07:27.486Z,9.27
2018-07-04T08:10:09.472Z,8.40
2018-07-04T08:12:53.928Z,11.67
2018-07-04T08:15:36.227Z,7.80
2018-07-04T08:18:23.139Z,7.87
2018-07-04T08:20:59.324Z,11.47
2018-07-04T08:23:48.065Z,8.23
2018-07-04T08:26:32.004Z,11.27
2018-07-04T08:29:14.024Z,12.43
2018-07-04T08:31:58.905Z,8.53
2018-07-04T08:34:44.151Z,7.77
2018-07-04T08:37:33.609Z,10.13
2018-07-04T08:40:17.660Z,7.47
2018-07-04T08:43:00.471Z,8.33
2018-07-04T08:45:43.096Z,8.97
2018-07-04T08:48:27.750Z,9.67
2018-07-04T08:51:11.402Z,10.27
2018-07-04T08:53:55.012Z,8.70
2018-07-04T08:56:34.258Z,9.00
2018-07-04T08:59:18.846Z,10.00
2018-07-04T09:02:05.925Z,10.87
2018-07-04T09:04:46.283Z,9.87
2018-07-04T09:07:35.241Z,7.67
2018-07-04T09:13:20.549Z,9.87
2018-07-04T09:16:06.219Z,9.80
2018-07-04T09:18:52.723Z,10.37
2018-07-04T09:21:38.418Z,9.83
2018-07-04T09:24:20.094Z,14.87
2018-07-04T09:27:01.816Z,13.87
2018-07-04T09:29:46.854Z,10.00
2018-07-04T09:32:28.660Z,10.10
2018-07-04T09:35:11.257Z,11.13
2018-07-04T09:37:52.849Z,10.20
2018-07-04T09:40:41.540Z,13.13
2018-07-04T09:43:21.303Z,6.10
2018-07-04T09:45:59.370Z,6.93
2018-07-04T09:48:44.130Z,11.77
2018-07-04T09:51:26.892Z,12.03
2018-07-04T09:54:09.736Z,13.30
2018-07-04T09:56:52.578Z,8.53
2018-07-04T09:59:33.555Z,9.57
2018-07-04T10:02:18.701Z,13.43
2018-07-04T10:05:03.271Z,10.03
2018-07-04T10:07:54.088Z,8.50
2018-07-04T10:10:36.806Z,9.43
2018-07-04T10:13:20.942Z,11.40
2018-07-04T10:16:02.673Z,11.93
2018-07-04T10:18:44.395Z,9.47
2018-07-04T10:21:20.873Z,7.67
2018-07-04T10:24:05.350Z,10.73
2018-07-04T10:26:49.075Z,9.60
2018-07-04T10:29:40.177Z,9.50
2018-07-04T10:32:25.144Z,13.83
2018-07-04T10:35:09.286Z,7.47
2018-07-04T10:37:50.831Z,10.50
2018-07-04T10:40:32.999Z,9.93
2018-07-04T10:43:14.994Z,9.57
2018-07-04T10:45:57.702Z,8.57
2018-07-04T10:48:39.595Z,9.67
2018-07-04T10:51:21.839Z,8.07
2018-07-04T10:54:03.367Z,6.43
2018-07-04T10:56:44.885Z,8.13
2018-07-04T10:59:21.231Z,10.20
2018-07-04T11:02:05.453Z,8.30
2018-07-04T11:04:49.618Z,6.67
2018-07-04T11:07:32.334Z,8.83
2018-07-04T11:10:17.406Z,5.57
2018-07-04T11:12:59.210Z,10.20
2018-07-04T11:15:49.501Z,7.30
2018-07-04T11:18:33.936Z,9.13
2018-07-04T11:21:16.675Z,10.23
2018-07-04T11:24:02.135Z,8.80
2018-07-04T11:26:43.713Z,9.40
2018-07-04T11:29:29.115Z,10.33
2018-07-04T11:32:11.827Z,9.30
2018-07-04T11:34:53.909Z,8.93
2018-07-04T11:37:35.511Z,8.50
2018-07-04T11:40:20.029Z,11.07
2018-07-04T11:43:02.380Z,7.27
2018-07-04T11:45:44.280Z,8.50
2018-07-04T11:48:13.118Z,7.50
2018-07-04T11:50:42.572Z,9.60
2018-07-04T11:53:12.286Z,9.23
2018-07-04T11:55:44.450Z,9.23
2018-07-04T11:58:14.993Z,8.63
2018-07-04T12:00:45.307Z,10.00
2018-07-04T12:03:19.794Z,9.73
2018-07-04T12:06:06.503Z,10.53
2018-07-04T12:08:36.307Z,9.30
2018-07-04T12:11:10.017Z,13.23
2018-07-04T12:13:44.953Z,10.20
2018-07-04T12:16:18.653Z,8.20
2018-07-04T12:19:03.822Z,10.00
2018-07-04T12:21:34.856Z,11.37
2018-07-04T12:24:04.573Z,8.30
2018-07-04T12:26:36.640Z,8.97
2018-07-04T12:29:07.465Z,8.13
2018-07-04T12:31:37.176Z,6.27
2018-07-04T12:34:08.609Z,9.10
2018-07-04T12:36:39.058Z,8.00
2018-07-04T12:39:08.569Z,9.23
2018-07-04T12:41:38.476Z,10.70
2018-07-04T12:44:11.155Z,6.33
2018-07-04T12:46:41.275Z,9.43
2018-07-04T12:49:11.995Z,10.10
2018-07-04T12:51:56.542Z,4.73
2018-07-04T12:54:36.154Z,6.23
2018-07-04T12:57:18.632Z,9.67
2018-07-04T13:00:01.084Z,6.87
2018-07-04T13:02:42.397Z,8.33
2018-07-04T13:05:26.408Z,7.93
2018-07-04T13:08:12.847Z,5.40
2018-07-04T13:10:48.902Z,7.07
2018-07-04T13:13:30.285Z,4.87
2018-07-04T13:16:13.119Z,8.17
2018-07-04T13:18:58.896Z,11.60
2018-07-04T13:21:40.788Z,6.13
2018-07-04T13:24:26.772Z,11.00
2018-07-04T13:27:02.826Z,5.87
2018-07-04T13:29:50.470Z,12.13
2018-07-04T13:32:33.099Z,8.93
2018-07-04T13:35:19.077Z,5.87
2018-07-04T13:38:07.298Z,6.53
2018-07-04T13:40:50.124Z,5.83
2018-07-04T13:43:31.397Z,8.03
2018-07-04T13:46:15.654Z,8.70
2018-07-04T13:48:57.335Z,9.20
2018-07-04T13:51:38.935Z,6.37
2018-07-04T13:54:20.411Z,7.50
2018-07-04T13:57:08.962Z,8.90
2018-07-04T13:59:58.520Z,7.33
2018-07-04T14:02:53.905Z,5.23
2018-07-04T14:05:36.040Z,6.23
2018-07-04T14:08:20.408Z,7.13
2018-07-04T14:11:03.713Z,4.57
2018-07-04T14:13:47.274Z,8.07
2018-07-04T14:16:31.309Z,6.17
2018-07-04T14:19:17.572Z,4.63
2018-07-04T14:21:58.598Z,9.20
2018-07-04T14:24:43.632Z,6.30
2018-07-04T14:27:32.763Z,6.43
2018-07-04T14:30:16.651Z,7.63
2018-07-04T14:32:59.367Z,7.50
2018-07-04T14:35:42.904Z,5.97
2018-07-04T14:38:25.071Z,7.07
2018-07-04T14:41:10.177Z,5.67
2018-07-04T14:43:52.230Z,7.40
2018-07-04T14:46:34.370Z,7.17
2018-07-04T14:49:16.207Z,5.93
2018-07-04T14:51:58.906Z,7.27
2018-07-04T14:54:41.890Z,8.30
2018-07-04T14:57:25.539Z,3.77
2018-07-04T15:00:08.658Z,5.87
2018-07-04T15:02:58.010Z,10.73
2018-07-04T15:05:42.041Z,2.90
2018-07-04T15:08:25.194Z,5.97
2018-07-04T15:11:08.102Z,6.60
2018-07-04T15:13:52.480Z,8.33
2018-07-04T15:16:35.390Z,7.47
2018-07-04T15:19:18.110Z,6.87
2018-07-04T15:21:56.733Z,6.00
2018-07-04T15:24:39.123Z,7.37
2018-07-04T15:27:21.046Z,7.07
2018-07-04T15:30:03.743Z,6.20
2018-07-04T15:32:48.572Z,3.57
2018-07-04T15:35:32.362Z,7.07
2018-07-04T15:38:14.853Z,6.20
2018-07-04T15:40:57.670Z,5.13
2018-07-04T15:43:43.111Z,9.87
2018-07-04T15:46:25.931Z,6.27
2018-07-04T15:49:06.901Z,5.87
2018-07-04T15:51:51.045Z,5.30
2018-07-04T15:54:33.676Z,4.93
2018-07-04T15:57:15.612Z,3.13
2018-07-04T15:59:59.223Z,3.30
2018-07-04T16:02:47.264Z,4.57
2018-07-04T16:05:34.167Z,2.70
2018-07-04T16:08:26.206Z,4.30
2018-07-04T16:11:11.110Z,5.00
2018-07-04T16:13:54.292Z,5.07
2018-07-04T16:16:38.555Z,4.67
2018-07-04T16:19:23.096Z,3.67
2018-07-04T16:22:07.442Z,2.37
2018-07-04T16:24:44.850Z,3.33
2018-07-04T16:27:26.985Z,3.53
2018-07-04T16:30:09.260Z,11.43
2018-07-04T16:32:51.665Z,3.97
2018-07-04T16:35:34.046Z,2.50
2018-07-04T16:38:21.825Z,6.27
2018-07-04T16:41:06.131Z,3.33
2018-07-04T16:43:56.111Z,3.47
2018-07-04T16:46:40.887Z,3.33
2018-07-04T16:49:23.698Z,3.90
2018-07-04T16:52:06.423Z,1.93
2018-07-04T16:54:51.265Z,2.07
2018-07-04T16:57:34.413Z,3.60
2018-07-04T17:00:16.294Z,3.63
2018-07-04T17:02:58.914Z,3.20
2018-07-04T17:05:39.784Z,6.63
2018-07-04T17:08:20.896Z,4.57
2018-07-04T17:11:03.115Z,4.00
2018-07-04T17:16:43.222Z,5.17
2018-07-04T17:19:24.918Z,4.10
2018-07-04T17:22:07.850Z,5.43
2018-07-04T17:24:49.798Z,2.67
2018-07-04T17:27:34.799Z,4.17
2018-07-04T17:30:18.541Z,3.37
2018-07-04T17:33:01.268Z,2.60
2018-07-04T17:35:46.015Z,4.07
2018-07-04T17:38:32.516Z,3.60
2018-07-04T17:41:16.684Z,2.00
2018-07-04T17:49:48.671Z,4.43
2018-07-04T17:52:34.140Z,5.80
2018-07-04T17:55:21.059Z,7.43
2018-07-04T18:07:22.284Z,4.17
2018-07-04T18:10:17.464Z,5.53
2018-07-04T18:13:11.782Z,4.97
2018-07-04T18:16:06.564Z,4.37
2018-07-04T18:19:01.908Z,5.30
2018-07-04T18:21:55.226Z,3.87
2018-07-04T18:24:48.189Z,6.90
2018-07-04T18:27:40.421Z,4.97
2018-07-04T18:30:33.689Z,4.07
2018-07-04T18:33:26.179Z,5.43
2018-07-04T18:36:18.764Z,4.07
2018-07-04T18:39:12.651Z,6.37
2018-07-04T18:42:01.296Z,4.37
2018-07-04T18:44:56.096Z,5.37
2018-07-04T18:47:48.031Z,3.10
2018-07-04T18:50:42.076Z,2.47
2018-07-04T18:53:34.909Z,3.43
2018-07-04T18:56:28.257Z,1.90
2018-07-04T18:59:25.055Z,3.87
2018-07-04T19:02:15.207Z,2.73
2018-07-04T19:05:04.780Z,4.33
2018-07-04T19:07:46.205Z,3.83
2018-07-04T19:10:30.648Z,3.90
2018-07-04T19:13:11.342Z,4.90
2018-07-04T19:15:53.428Z,5.10
2018-07-04T19:18:36.145Z,6.50
2018-07-04T19:21:17.959Z,5.40
2018-07-04T19:26:53.824Z,3.27
2018-07-04T19:29:36.827Z,8.07
2018-07-04T19:32:12.880Z,2.10
2018-07-04T19:34:55.398Z,3.10
2018-07-04T19:37:41.222Z,2.87
2018-07-04T19:40:25.640Z,6.70
2018-07-04T19:46:38.693Z,2.53
2018-07-04T19:49:21.912Z,6.83
2018-07-04T19:52:04.210Z,5.93
2018-07-04T19:54:52.878Z,4.50
2018-07-04T19:57:38.984Z,5.80
2018-07-04T20:00:24.326Z,6.77
2018-07-04T20:03:06.544Z,3.23
2018-07-04T20:05:49.457Z,3.03
2018-07-04T20:17:30.978Z,3.17
2018-07-04T20:20:12.902Z,4.60
2018-07-04T20:22:56.231Z,3.47
2018-07-04T20:25:41.445Z,3.97
2018-07-04T20:28:23.708Z,3.73
2018-07-04T20:31:05.806Z,3.93
2018-07-04T20:33:46.811Z,4.07
2018-07-04T20:36:31.847Z,3.77
2018-07-04T20:39:17.866Z,3.93
2018-07-04T20:41:59.429Z,3.27
2018-07-04T20:44:41.268Z,3.50
2018-07-04T20:47:23.115Z,7.00
2018-07-04T20:50:04.142Z,3.80
2018-07-04T20:52:45.169Z,4.73
2018-07-04T20:55:29.180Z,4.87
2018-07-04T20:58:10.076Z,4.70
2018-07-04T21:00:51.749Z,5.37
2018-07-04T21:03:37.122Z,4.37
2018-07-04T21:06:19.266Z,3.23
2018-07-04T21:12:07.034Z,5.43
2018-07-04T21:14:52.830Z,6.63
2018-07-04T21:17:39.905Z,4.03
2018-07-04T21:20:29.890Z,6.50
2018-07-04T21:23:15.983Z,4.93
2018-07-04T21:25:57.956Z,3.40
2018-07-04T21:28:53.706Z,8.07
2018-07-04T21:31:34.590Z,4.53
2018-07-04T21:34:18.769Z,3.97
2018-07-04T21:37:01.088Z,7.80
2018-07-04T21:39:53.865Z,3.80
2018-07-04T21:42:35.972Z,4.37
2018-07-04T21:45:17.488Z,5.10
2018-07-04T21:48:03.128Z,6.27
2018-07-04T21:51:07.212Z,4.27
2018-07-04T21:56:35.714Z,2.53
2018-07-04T21:59:16.707Z,7.90
2018-07-04T22:01:54.466Z,5.13
2018-07-04T22:04:28.566Z,7.77
2018-07-04T22:07:08.770Z,4.20
2018-07-04T22:09:53.474Z,5.47
2018-07-04T22:12:33.920Z,4.10
2018-07-04T22:15:14.343Z,6.50
2018-07-04T22:17:56.552Z,4.77
2018-07-04T22:20:41.029Z,3.07
2018-07-04T22:23:21.979Z,9.73
2018-07-04T22:26:06.210Z,5.00
2018-07-04T22:28:47.422Z,4.73
2018-07-04T22:31:27.436Z,8.00
2018-07-04T22:34:10.264Z,6.77
2018-07-04T22:37:05.478Z,4.60
2018-07-04T22:39:46.181Z,6.93
2018-07-04T22:42:27.155Z,6.87
2018-07-04T22:45:08.655Z,7.83
2018-07-04T22:47:49.429Z,7.23
2018-07-04T22:50:33.656Z,6.10
2018-07-04T22:53:14.078Z,5.20
2018-07-04T22:55:56.913Z,5.43
2018-07-04T22:58:33.563Z,5.10
2018-07-04T23:01:14.250Z,6.07
2018-07-04T23:03:58.458Z,8.23
2018-07-04T23:06:39.611Z,6.23
2018-07-04T23:09:20.233Z,7.83
2018-07-04T23:12:00.937Z,7.83
2018-07-04T23:14:40.852Z,5.70
2018-07-04T23:17:21.441Z,9.57
2018-07-04T23:20:03.814Z,8.30
2018-07-04T23:22:44.314Z,7.53
2018-07-04T23:25:24.567Z,6.53
2018-07-04T23:28:05.444Z,5.90
2018-07-04T23:33:47.869Z,11.80
2018-07-04T23:36:30.279Z,5.77
2018-07-04T23:39:12.014Z,8.33
2018-07-04T23:44:47.743Z,10.00
2018-07-04T23:47:24.509Z,7.43
2018-07-04T23:52:59.866Z,9.70
2018-07-04T23:55:41.158Z,10.73
2018-07-04T23:58:23.038Z,7.17
